Time;durP1;ratioP1;P1;durP2;ratioP2;P2;SDS_P1;SDS_P2;PMS_P1;PMS_P2;Temp;Humidity;BMP_temperature;BMP_pressure;BME280_temperature;BME280_humidity;BME280_pressure;Samples;Min_cycle;Max_cycle;Signal;HPM_P1;HPM_P2
2022/04/13 00:00:13;;;;;;;10.50;4.85;;;;;;;;;;5022928;28;20041;-70
2022/04/13 00:02:38;;;;;;;8.63;4.65;;;;;;;;;;5025142;28;20110;-72
2022/04/13 00:05:05;;;;;;;7.88;4.55;;;;;;;;;;5023091;28;20050;-72
2022/04/13 00:07:30;;;;;;;6.63;4.80;;;;;;;;;;5024918;28;20478;-72
2022/04/13 00:09:57;;;;;;;14.55;5.15;;;;;;;;;;5024216;28;20044;-72
2022/04/13 00:12:23;;;;;;;8.05;5.00;;;;;;;;;;5024591;28;20615;-72
2022/04/13 00:14:48;;;;;;;9.70;5.55;;;;;;;;;;5023027;28;20120;-72
2022/04/13 00:17:14;;;;;;;11.85;6.38;;;;;;;;;;5024131;28;20041;-72
2022/04/13 00:19:39;;;;;;;10.85;6.25;;;;;;;;;;5023629;28;20132;-72
2022/04/13 00:22:05;;;;;;;13.70;5.90;;;;;;;;;;5024209;28;20038;-72
2022/04/13 00:24:30;;;;;;;14.07;6.60;;;;;;;;;;5006846;28;20041;-71
2022/04/13 00:26:57;;;;;;;12.13;7.40;;;;;;;;;;5022778;28;20037;-72
2022/04/13 00:29:29;;;;;;;12.35;7.90;;;;;;;;;;5023503;28;20079;-72
2022/04/13 00:31:57;;;;;;;8.82;5.53;;;;;;;;;;5022889;28;20221;-71
2022/04/13 00:34:23;;;;;;;8.75;5.43;;;;;;;;;;5022816;28;20112;-70
2022/04/13 00:36:48;;;;;;;10.60;5.43;;;;;;;;;;5022435;28;20429;-70
2022/04/13 00:39:14;;;;;;;14.25;5.18;;;;;;;;;;5023702;28;20161;-71
2022/04/13 00:41:39;;;;;;;13.23;5.05;;;;;;;;;;5024655;28;20091;-71
2022/04/13 00:44:10;;;;;;;8.60;5.30;;;;;;;;;;5023871;28;20099;-72
2022/04/13 00:46:36;;;;;;;8.45;4.97;;;;;;;;;;5023709;28;20033;-71
2022/04/13 00:49:03;;;;;;;7.90;4.93;;;;;;;;;;5021403;28;20033;-71
2022/04/13 00:51:29;;;;;;;10.18;5.43;;;;;;;;;;5024088;28;20083;-71
2022/04/13 00:53:57;;;;;;;11.00;4.60;;;;;;;;;;5023614;28;20041;-71
2022/04/13 00:56:24;;;;;;;7.90;4.95;;;;;;;;;;5023924;28;20042;-71
2022/04/13 00:58:53;;;;;;;10.15;5.03;;;;;;;;;;5022034;28;20091;-71
2022/04/13 01:01:20;;;;;;;11.45;4.72;;;;;;;;;;5023163;28;20033;-71
2022/04/13 01:03:47;;;;;;;15.00;6.03;;;;;;;;;;5016163;28;20496;-71
2022/04/13 01:06:15;;;;;;;10.82;5.20;;;;;;;;;;5023720;28;20037;-71
2022/04/13 01:08:42;;;;;;;10.35;4.68;;;;;;;;;;5022473;28;20025;-69
2022/04/13 01:11:08;;;;;;;13.23;5.10;;;;;;;;;;5020950;28;20120;-71
2022/04/13 01:13:33;;;;;;;8.15;5.18;;;;;;;;;;5021978;28;20108;-71
2022/04/13 01:15:59;;;;;;;9.25;5.07;;;;;;;;;;5023099;28;20104;-72
2022/04/13 01:18:24;;;;;;;11.02;5.03;;;;;;;;;;5023283;28;20127;-71
2022/04/13 01:20:53;;;;;;;12.88;5.20;;;;;;;;;;5021005;28;20040;-71
2022/04/13 01:23:23;;;;;;;10.52;5.40;;;;;;;;;;5022507;28;20025;-71
2022/04/13 01:25:53;;;;;;;9.93;5.38;;;;;;;;;;5020776;28;20037;-71
2022/04/13 01:28:18;;;;;;;10.55;5.32;;;;;;;;;;5021528;28;20962;-71
2022/04/13 01:30:44;;;;;;;9.45;5.57;;;;;;;;;;5022784;28;20045;-72
2022/04/13 01:33:10;;;;;;;9.77;5.18;;;;;;;;;;5021393;28;20406;-71
2022/04/13 01:35:35;;;;;;;12.85;5.22;;;;;;;;;;5023411;28;20124;-72
2022/04/13 01:38:02;;;;;;;12.02;5.75;;;;;;;;;;5021640;28;20116;-72
2022/04/13 01:40:27;;;;;;;9.90;5.63;;;;;;;;;;5021438;28;20036;-72
2022/04/13 01:42:52;;;;;;;8.48;4.95;;;;;;;;;;5021047;28;20033;-72
2022/04/13 01:45:21;;;;;;;10.50;5.18;;;;;;;;;;5023246;28;20033;-72
2022/04/13 01:47:48;;;;;;;8.43;5.47;;;;;;;;;;5022337;28;20037;-72
2022/04/13 01:50:18;;;;;;;9.15;5.47;;;;;;;;;;5021333;28;20026;-71
2022/04/13 01:52:45;;;;;;;9.02;5.40;;;;;;;;;;5022766;28;20033;-71
2022/04/13 01:55:11;;;;;;;10.25;5.57;;;;;;;;;;5020904;28;20033;-72
2022/04/13 01:57:41;;;;;;;7.90;5.65;;;;;;;;;;5022262;28;20394;-72
2022/04/13 02:00:09;;;;;;;8.57;5.68;;;;;;;;;;5021978;28;20041;-72
2022/04/13 02:02:35;;;;;;;7.72;5.00;;;;;;;;;;5022743;28;20152;-71
2022/04/13 02:05:01;;;;;;;8.65;5.50;;;;;;;;;;5020322;28;20120;-72
2022/04/13 02:07:27;;;;;;;12.43;5.68;;;;;;;;;;5025008;28;20068;-71
2022/04/13 02:09:56;;;;;;;7.88;5.53;;;;;;;;;;5021926;28;20046;-72
2022/04/13 02:12:21;;;;;;;7.68;5.38;;;;;;;;;;5022323;28;20029;-72
2022/04/13 02:14:47;;;;;;;8.82;5.47;;;;;;;;;;5022020;28;20033;-72
2022/04/13 02:17:16;;;;;;;11.45;5.40;;;;;;;;;;5020064;28;20038;-71
2022/04/13 02:19:45;;;;;;;8.15;5.38;;;;;;;;;;5021574;28;20040;-72
2022/04/13 02:22:11;;;;;;;12.32;5.80;;;;;;;;;;5021669;28;20048;-70
2022/04/13 02:24:39;;;;;;;7.55;5.18;;;;;;;;;;5021751;28;20056;-70
2022/04/13 02:27:06;;;;;;;11.40;5.65;;;;;;;;;;5020118;28;20915;-70
2022/04/13 02:29:31;;;;;;;7.18;5.10;;;;;;;;;;5019953;28;20055;-71
2022/04/13 02:31:57;;;;;;;10.25;5.55;;;;;;;;;;5021342;28;20528;-71
2022/04/13 02:34:22;;;;;;;9.50;5.55;;;;;;;;;;5020488;28;20949;-71
2022/04/13 02:36:48;;;;;;;12.63;5.72;;;;;;;;;;5021200;28;20406;-71
2022/04/13 02:39:13;;;;;;;10.60;5.28;;;;;;;;;;5020053;28;20028;-71
2022/04/13 02:41:39;;;;;;;7.97;5.38;;;;;;;;;;5022021;28;20667;-71
2022/04/13 02:44:05;;;;;;;13.00;6.72;;;;;;;;;;5020776;28;20026;-71
2022/04/13 02:46:30;;;;;;;10.23;6.10;;;;;;;;;;5021771;28;20090;-71
2022/04/13 02:48:55;;;;;;;11.77;6.10;;;;;;;;;;5017897;28;20086;-71
2022/04/13 02:51:21;;;;;;;12.13;6.03;;;;;;;;;;5021295;28;20140;-71
2022/04/13 02:53:46;;;;;;;9.82;6.38;;;;;;;;;;5020967;28;20040;-71
2022/04/13 02:56:12;;;;;;;11.05;5.78;;;;;;;;;;5021709;28;20135;-71
2022/04/13 02:58:37;;;;;;;10.18;5.25;;;;;;;;;;5020727;28;20048;-71
2022/04/13 03:01:06;;;;;;;12.07;5.30;;;;;;;;;;5018039;28;20036;-70
2022/04/13 03:03:32;;;;;;;10.98;6.30;;;;;;;;;;5016252;28;20095;-71
2022/04/13 03:05:57;;;;;;;15.07;6.28;;;;;;;;;;5020824;28;20779;-71
2022/04/13 03:08:23;;;;;;;9.95;5.88;;;;;;;;;;5020827;28;20033;-71
2022/04/13 03:10:48;;;;;;;8.73;5.85;;;;;;;;;;5019548;28;20088;-70
2022/04/13 03:13:14;;;;;;;8.80;5.75;;;;;;;;;;5018176;28;20745;-70
2022/04/13 03:15:39;;;;;;;10.18;5.43;;;;;;;;;;5019172;28;20033;-70
2022/04/13 03:18:07;;;;;;;9.27;5.78;;;;;;;;;;5021418;28;20045;-70
2022/04/13 03:20:34;;;;;;;7.55;5.03;;;;;;;;;;5020042;28;20025;-71
2022/04/13 03:23:03;;;;;;;9.75;5.68;;;;;;;;;;5019455;28;20064;-71
2022/04/13 03:25:28;;;;;;;11.93;6.03;;;;;;;;;;5021753;28;20041;-71
2022/04/13 03:27:54;;;;;;;12.35;6.10;;;;;;;;;;5019246;28;20128;-70
2022/04/13 03:30:21;;;;;;;9.38;5.80;;;;;;;;;;5020613;28;20038;-70
2022/04/13 03:32:47;;;;;;;9.98;6.00;;;;;;;;;;5018956;28;20042;-70
2022/04/13 03:35:12;;;;;;;11.32;6.65;;;;;;;;;;5019249;28;20041;-70
2022/04/13 03:37:41;;;;;;;12.68;7.32;;;;;;;;;;5020685;28;20083;-70
2022/04/13 03:40:09;;;;;;;14.82;6.45;;;;;;;;;;5020383;28;20768;-69
2022/04/13 03:42:35;;;;;;;11.57;6.30;;;;;;;;;;5020702;28;20033;-69
2022/04/13 03:45:06;;;;;;;9.55;6.60;;;;;;;;;;5019365;28;20065;-69
2022/04/13 03:47:31;;;;;;;9.48;6.35;;;;;;;;;;5020149;28;20029;-69
2022/04/13 03:49:57;;;;;;;10.10;6.93;;;;;;;;;;5020457;28;20067;-69
2022/04/13 03:52:22;;;;;;;15.23;6.22;;;;;;;;;;5020755;28;20048;-69
2022/04/13 03:54:48;;;;;;;9.85;6.63;;;;;;;;;;5019305;28;20049;-69
2022/04/13 03:57:13;;;;;;;11.55;6.65;;;;;;;;;;5020268;28;20044;-69
2022/04/13 03:59:39;;;;;;;9.32;6.28;;;;;;;;;;5020001;28;20107;-69
2022/04/13 04:02:05;;;;;;;9.68;6.55;;;;;;;;;;5019708;28;20045;-69
2022/04/13 04:04:30;;;;;;;9.50;5.53;;;;;;;;;;5021120;28;20514;-69
2022/04/13 04:06:55;;;;;;;9.45;5.95;;;;;;;;;;5018608;28;20148;-69
2022/04/13 04:09:21;;;;;;;12.55;6.40;;;;;;;;;;5020177;28;20503;-69
2022/04/13 04:11:46;;;;;;;10.25;5.60;;;;;;;;;;5019256;28;20033;-69
2022/04/13 04:14:12;;;;;;;11.55;5.72;;;;;;;;;;5020634;28;20037;-69
2022/04/13 04:16:37;;;;;;;11.00;5.88;;;;;;;;;;5018632;28;20034;-69
2022/04/13 04:19:03;;;;;;;12.82;5.97;;;;;;;;;;5020199;28;20060;-69
2022/04/13 04:21:28;;;;;;;14.02;6.18;;;;;;;;;;5002297;28;20030;-69
2022/04/13 04:23:53;;;;;;;12.15;7.15;;;;;;;;;;5020613;28;20585;-69
2022/04/13 04:26:19;;;;;;;13.77;6.50;;;;;;;;;;5020483;28;20562;-69
2022/04/13 04:28:44;;;;;;;10.55;6.75;;;;;;;;;;5018689;28;20086;-69
2022/04/13 04:31:10;;;;;;;10.98;5.80;;;;;;;;;;5019438;28;20040;-69
2022/04/13 04:33:35;;;;;;;10.70;6.88;;;;;;;;;;5020426;28;20037;-69
2022/04/13 04:36:00;;;;;;;8.43;5.82;;;;;;;;;;5020277;28;20088;-70
2022/04/13 04:38:32;;;;;;;10.73;5.88;;;;;;;;;;5018882;28;20041;-69
2022/04/13 04:40:59;;;;;;;9.18;5.60;;;;;;;;;;5017382;28;20422;-69
2022/04/13 04:43:24;;;;;;;8.07;5.72;;;;;;;;;;5016452;28;20520;-70
2022/04/13 04:45:49;;;;;;;15.15;6.90;;;;;;;;;;5017279;28;20862;-69
2022/04/13 04:48:15;;;;;;;10.10;5.82;;;;;;;;;;5023065;28;20037;-69
2022/04/13 04:50:40;;;;;;;10.43;6.05;;;;;;;;;;5021009;28;20072;-69
2022/04/13 04:53:06;;;;;;;8.80;5.95;;;;;;;;;;5023529;28;20033;-71
2022/04/13 04:55:31;;;;;;;7.60;5.57;;;;;;;;;;5022706;28;20499;-69
2022/04/13 04:57:57;;;;;;;13.85;6.00;;;;;;;;;;5021041;28;20037;-69
2022/04/13 05:00:23;;;;;;;8.77;6.10;;;;;;;;;;5021418;28;20044;-69
2022/04/13 05:02:53;;;;;;;13.90;6.75;;;;;;;;;;5022995;28;20033;-69
2022/04/13 05:05:19;;;;;;;9.90;6.60;;;;;;;;;;5023950;28;20041;-71
2022/04/13 05:07:45;;;;;;;9.95;6.30;;;;;;;;;;5021309;28;20030;-68
2022/04/13 05:10:12;;;;;;;15.85;5.93;;;;;;;;;;5021916;28;20025;-69
2022/04/13 05:12:49;;;;;;;10.45;6.00;;;;;;;;;;5020536;28;20025;-70
2022/04/13 05:15:15;;;;;;;12.35;6.18;;;;;;;;;;5021800;28;20516;-69
2022/04/13 05:17:41;;;;;;;10.90;6.03;;;;;;;;;;5022809;28;20037;-69
2022/04/13 05:20:08;;;;;;;10.32;5.85;;;;;;;;;;5021950;28;20034;-70
2022/04/13 05:22:34;;;;;;;9.55;5.93;;;;;;;;;;5020027;28;20037;-69
2022/04/13 05:25:07;;;;;;;8.23;5.70;;;;;;;;;;5021227;28;20063;-71
2022/04/13 05:27:33;;;;;;;11.02;5.78;;;;;;;;;;5021109;28;20033;-72
2022/04/13 05:29:58;;;;;;;13.73;5.95;;;;;;;;;;5020844;28;20048;-69
2022/04/13 05:32:24;;;;;;;13.85;6.05;;;;;;;;;;5020856;28;20057;-69
2022/04/13 05:34:49;;;;;;;9.45;5.80;;;;;;;;;;5021083;28;20040;-70
2022/04/13 05:37:14;;;;;;;10.38;5.85;;;;;;;;;;5022484;28;20095;-70
2022/04/13 05:39:40;;;;;;;7.97;5.50;;;;;;;;;;5021334;28;20033;-70
2022/04/13 05:42:05;;;;;;;8.98;5.45;;;;;;;;;;5021629;28;20038;-70
2022/04/13 05:44:31;;;;;;;9.98;5.55;;;;;;;;;;5018640;28;20044;-70
2022/04/13 05:46:56;;;;;;;8.82;5.57;;;;;;;;;;5019951;28;20467;-70
2022/04/13 05:49:22;;;;;;;6.80;5.20;;;;;;;;;;5020199;28;20164;-70
2022/04/13 05:51:47;;;;;;;9.48;5.10;;;;;;;;;;5017905;28;20041;-70
2022/04/13 05:54:12;;;;;;;10.40;5.15;;;;;;;;;;5021186;28;20054;-70
2022/04/13 05:56:38;;;;;;;10.02;5.57;;;;;;;;;;5019327;28;20057;-70
2022/04/13 05:59:03;;;;;;;7.97;5.00;;;;;;;;;;5022319;28;20065;-70
2022/04/13 06:01:29;;;;;;;13.57;5.03;;;;;;;;;;5021960;28;20759;-69
2022/04/13 06:03:54;;;;;;;10.50;4.88;;;;;;;;;;5022474;28;20512;-70
2022/04/13 06:06:21;;;;;;;5.75;4.00;;;;;;;;;;5021199;28;20025;-71
2022/04/13 06:08:46;;;;;;;11.65;4.18;;;;;;;;;;5020357;28;20048;-70
2022/04/13 06:11:12;;;;;;;10.02;4.70;;;;;;;;;;5022009;28;20049;-71
2022/04/13 06:13:37;;;;;;;6.18;3.78;;;;;;;;;;5022372;28;20042;-71
2022/04/13 06:16:03;;;;;;;8.52;3.90;;;;;;;;;;5021944;28;20033;-71
2022/04/13 06:18:28;;;;;;;6.63;4.10;;;;;;;;;;5020585;28;20036;-69
2022/04/13 06:20:53;;;;;;;7.95;4.05;;;;;;;;;;5020410;28;20532;-70
2022/04/13 06:23:19;;;;;;;6.65;3.88;;;;;;;;;;5021668;28;20091;-69
2022/04/13 06:25:44;;;;;;;7.13;4.00;;;;;;;;;;5015685;28;20041;-70
2022/04/13 06:28:10;;;;;;;11.55;4.00;;;;;;;;;;5020521;28;20069;-70
2022/04/13 06:30:35;;;;;;;5.38;3.75;;;;;;;;;;5020890;28;20047;-69
2022/04/13 06:33:01;;;;;;;8.25;3.63;;;;;;;;;;5020647;28;20160;-68
2022/04/13 06:35:26;;;;;;;8.98;4.80;;;;;;;;;;5021896;28;20504;-69
2022/04/13 06:37:52;;;;;;;5.18;3.63;;;;;;;;;;5020185;28;20144;-69
2022/04/13 06:40:17;;;;;;;5.50;3.40;;;;;;;;;;5020350;28;20088;-70
2022/04/13 06:42:43;;;;;;;5.60;3.65;;;;;;;;;;5020135;28;20086;-69
2022/04/13 06:45:12;;;;;;;8.07;3.30;;;;;;;;;;5021284;28;20029;-68
2022/04/13 06:47:38;;;;;;;6.15;3.50;;;;;;;;;;5020971;28;20025;-69
2022/04/13 06:50:05;;;;;;;8.50;3.75;;;;;;;;;;5020668;28;20060;-69
2022/04/13 06:52:38;;;;;;;5.20;3.97;;;;;;;;;;5018986;28;20033;-69
2022/04/13 06:55:04;;;;;;;7.88;4.05;;;;;;;;;;5019853;28;20041;-69
2022/04/13 06:57:33;;;;;;;7.30;3.65;;;;;;;;;;5020856;28;20037;-70
2022/04/13 06:59:59;;;;;;;4.68;3.53;;;;;;;;;;5020979;28;20060;-70
2022/04/13 07:02:26;;;;;;;6.43;3.88;;;;;;;;;;5018693;28;20475;-71
2022/04/13 07:04:53;;;;;;;6.78;3.70;;;;;;;;;;5020803;28;20078;-69
2022/04/13 07:07:18;;;;;;;12.10;4.03;;;;;;;;;;5019616;28;20024;-71
2022/04/13 07:09:44;;;;;;;7.15;3.95;;;;;;;;;;5020355;28;20144;-70
2022/04/13 07:12:09;;;;;;;7.72;4.25;;;;;;;;;;5019377;28;20033;-70
2022/04/13 07:14:34;;;;;;;13.13;4.18;;;;;;;;;;5020626;28;20039;-69
2022/04/13 07:17:00;;;;;;;6.38;3.60;;;;;;;;;;5019941;28;20572;-71
2022/04/13 07:19:25;;;;;;;6.65;4.05;;;;;;;;;;5020865;28;20044;-69
2022/04/13 07:21:51;;;;;;;7.38;4.22;;;;;;;;;;5019355;28;20068;-70
2022/04/13 07:24:16;;;;;;;9.60;4.35;;;;;;;;;;5018884;28;20502;-70
2022/04/13 07:26:41;;;;;;;12.20;4.55;;;;;;;;;;5021157;28;20041;-71
2022/04/13 07:29:07;;;;;;;8.35;4.20;;;;;;;;;;5020655;28;20065;-72
2022/04/13 07:31:32;;;;;;;5.60;4.13;;;;;;;;;;5018713;28;20120;-69
2022/04/13 07:33:58;;;;;;;8.23;4.20;;;;;;;;;;5020052;28;20383;-69
2022/04/13 07:36:23;;;;;;;9.68;4.70;;;;;;;;;;5019025;28;20486;-71
2022/04/13 07:38:51;;;;;;;6.60;4.65;;;;;;;;;;5019313;28;20067;-71
2022/04/13 07:41:17;;;;;;;10.85;4.28;;;;;;;;;;5020528;28;20061;-71
2022/04/13 07:43:44;;;;;;;8.32;4.85;;;;;;;;;;5020479;28;20153;-69
2022/04/13 07:46:10;;;;;;;6.78;4.10;;;;;;;;;;5018815;28;20485;-70
2022/04/13 07:48:35;;;;;;;7.70;4.28;;;;;;;;;;5021000;28;20379;-71
2022/04/13 07:51:01;;;;;;;8.38;3.95;;;;;;;;;;5019956;28;20505;-70
2022/04/13 07:53:26;;;;;;;10.52;3.83;;;;;;;;;;5020546;28;20509;-70
2022/04/13 07:55:52;;;;;;;7.95;4.22;;;;;;;;;;5019348;28;20041;-71
2022/04/13 07:58:17;;;;;;;4.70;3.45;;;;;;;;;;5018929;28;20156;-70
2022/04/13 08:00:42;;;;;;;6.57;3.72;;;;;;;;;;5020405;28;20033;-73
2022/04/13 08:03:08;;;;;;;7.07;3.90;;;;;;;;;;5020225;28;20599;-72
2022/04/13 08:05:34;;;;;;;6.55;3.42;;;;;;;;;;5020659;28;20037;-72
2022/04/13 08:07:59;;;;;;;6.25;3.85;;;;;;;;;;5019052;28;20033;-71
2022/04/13 08:10:25;;;;;;;5.45;3.63;;;;;;;;;;5018940;28;20041;-73
2022/04/13 08:12:51;;;;;;;7.07;3.88;;;;;;;;;;5019748;28;20482;-73
2022/04/13 08:15:16;;;;;;;5.15;3.70;;;;;;;;;;5020574;28;20068;-73
2022/04/13 08:17:42;;;;;;;4.03;3.63;;;;;;;;;;5018813;28;20929;-72
2022/04/13 08:20:11;;;;;;;5.40;3.58;;;;;;;;;;5018321;28;20038;-73
2022/04/13 08:22:37;;;;;;;6.82;3.72;;;;;;;;;;5022176;28;20045;-73
2022/04/13 08:25:04;;;;;;;5.43;3.60;;;;;;;;;;5024002;28;20049;-72
2022/04/13 08:27:29;;;;;;;4.15;3.38;;;;;;;;;;5024175;28;20116;-71
2022/04/13 08:29:55;;;;;;;7.35;3.28;;;;;;;;;;5022072;28;20037;-72
2022/04/13 08:32:21;;;;;;;5.47;3.42;;;;;;;;;;5022310;28;20125;-71
2022/04/13 08:34:51;;;;;;;4.25;3.30;;;;;;;;;;5023802;28;20854;-71
2022/04/13 08:37:17;;;;;;;6.28;3.90;;;;;;;;;;5023548;28;20041;-70
2022/04/13 08:39:43;;;;;;;4.45;3.35;;;;;;;;;;5024123;28;20043;-72
2022/04/13 08:42:35;;;;;;;13.98;3.70;;;;;;;;;;5004064;28;20389;-73
2022/04/13 08:45:15;;;;;;;;;;;;;;;;;;4994606;28;20053;-71
2022/04/13 08:47:43;;;;;;;4.10;3.65;;;;;;;;;;5023465;28;19928;-70
2022/04/13 08:50:11;;;;;;;7.05;3.88;;;;;;;;;;5023150;28;20048;-70
2022/04/13 08:52:39;;;;;;;5.60;3.25;;;;;;;;;;5021517;28;20060;-69
2022/04/13 08:55:09;;;;;;;3.58;3.25;;;;;;;;;;5021535;28;20037;-71
2022/04/13 08:57:37;;;;;;;5.15;3.75;;;;;;;;;;5023216;28;20040;-71
2022/04/13 09:00:09;;;;;;;5.70;3.70;;;;;;;;;;5023346;28;20037;-73
2022/04/13 09:02:50;;;;;;;6.47;3.97;;;;;;;;;;5022307;28;20510;-72
2022/04/13 09:05:18;;;;;;;5.00;3.53;;;;;;;;;;5023037;28;20040;-72
2022/04/13 09:07:49;;;;;;;6.65;3.65;;;;;;;;;;5024086;28;20084;-71
2022/04/13 09:10:23;;;;;;;6.97;3.70;;;;;;;;;;5022151;28;20120;-71
2022/04/13 09:12:50;;;;;;;8.02;3.40;;;;;;;;;;5022940;28;20061;-72
2022/04/13 09:15:17;;;;;;;6.40;3.22;;;;;;;;;;5021318;28;20103;-70
2022/04/13 09:17:43;;;;;;;4.18;3.28;;;;;;;;;;5021944;28;20033;-70
2022/04/13 09:20:13;;;;;;;7.00;3.75;;;;;;;;;;5023009;28;20408;-76
2022/04/13 09:22:41;;;;;;;8.98;3.75;;;;;;;;;;5024114;28;20493;-73
2022/04/13 09:25:11;;;;;;;7.00;4.18;;;;;;;;;;5020766;28;20037;-69
2022/04/13 09:27:37;;;;;;;12.40;3.53;;;;;;;;;;5022839;28;20095;-70
2022/04/13 09:30:05;;;;;;;5.47;3.65;;;;;;;;;;5022199;28;20456;-71
2022/04/13 09:32:31;;;;;;;5.63;3.38;;;;;;;;;;5021427;28;20048;-70
2022/04/13 09:34:58;;;;;;;5.43;3.42;;;;;;;;;;5022745;28;20072;-71
2022/04/13 09:37:24;;;;;;;5.78;3.10;;;;;;;;;;5020741;28;20049;-72
2022/04/13 09:39:50;;;;;;;3.60;3.28;;;;;;;;;;5022336;28;20059;-71
2022/04/13 09:42:15;;;;;;;3.55;3.25;;;;;;;;;;5022474;28;20061;-73
2022/04/13 09:44:41;;;;;;;5.07;3.28;;;;;;;;;;5004664;28;20037;-73
2022/04/13 09:47:12;;;;;;;3.20;2.90;;;;;;;;;;5020057;28;20045;-72
2022/04/13 09:49:45;;;;;;;3.75;2.80;;;;;;;;;;5021732;28;20801;-72
2022/04/13 09:52:11;;;;;;;5.53;3.50;;;;;;;;;;5020783;28;20021;-71
2022/04/13 09:54:44;;;;;;;3.97;3.25;;;;;;;;;;5022625;28;20033;-73
2022/04/13 09:57:20;;;;;;;3.08;2.80;;;;;;;;;;5020838;28;20103;-72
2022/04/13 09:59:53;;;;;;;4.32;3.35;;;;;;;;;;5022534;28;20029;-71
2022/04/13 10:02:36;;;;;;;5.05;3.45;;;;;;;;;;5019639;28;20457;-71
2022/04/13 10:05:07;;;;;;;4.85;3.42;;;;;;;;;;5019919;28;20045;-73
2022/04/13 10:07:33;;;;;;;4.43;3.50;;;;;;;;;;5022106;28;20341;-71
2022/04/13 10:09:58;;;;;;;3.95;3.10;;;;;;;;;;5020565;28;20030;-70
2022/04/13 10:12:24;;;;;;;3.92;2.78;;;;;;;;;;5021779;28;20025;-71
2022/04/13 10:14:50;;;;;;;10.07;2.95;;;;;;;;;;5020105;28;20095;-69
2022/04/13 10:17:15;;;;;;;3.65;2.30;;;;;;;;;;5020505;28;20044;-71
2022/04/13 10:19:42;;;;;;;3.45;2.67;;;;;;;;;;5020639;28;20462;-71
2022/04/13 10:22:08;;;;;;;2.60;2.28;;;;;;;;;;5020895;28;20037;-70
2022/04/13 10:24:35;;;;;;;3.10;2.58;;;;;;;;;;5022332;28;20033;-69
2022/04/13 10:27:02;;;;;;;4.32;2.60;;;;;;;;;;5021767;28;20441;-71
2022/04/13 10:29:28;;;;;;;2.83;2.35;;;;;;;;;;5022154;28;20549;-70
2022/04/13 10:32:24;;;;;;;4.63;2.40;;;;;;;;;;5019089;28;20037;-71
2022/04/13 10:34:51;;;;;;;4.93;2.90;;;;;;;;;;5021135;28;20053;-70
2022/04/13 10:37:20;;;;;;;5.97;2.97;;;;;;;;;;5020639;28;20729;-71
2022/04/13 10:39:46;;;;;;;7.88;3.20;;;;;;;;;;5020100;28;20057;-71
2022/04/13 10:42:15;;;;;;;8.02;2.80;;;;;;;;;;5019199;28;20534;-70
2022/04/13 10:44:45;;;;;;;4.55;2.80;;;;;;;;;;5021392;28;20498;-70
2022/04/13 10:47:16;;;;;;;6.45;2.67;;;;;;;;;;5020281;28;20033;-70
2022/04/13 10:49:56;;;;;;;4.73;2.43;;;;;;;;;;5022104;28;20041;-71
2022/04/13 10:52:39;;;;;;;7.97;3.10;;;;;;;;;;5018597;28;20436;-71
2022/04/13 10:55:09;;;;;;;8.82;3.20;;;;;;;;;;5021909;28;20049;-72
2022/04/13 10:58:01;;;;;;;10.15;2.90;;;;;;;;;;5020241;28;20124;-71
2022/04/13 11:00:29;;;;;;;4.18;2.90;;;;;;;;;;5019950;28;20037;-72
2022/04/13 11:02:58;;;;;;;3.75;2.90;;;;;;;;;;5021395;28;20044;-73
2022/04/13 11:05:28;;;;;;;6.07;3.30;;;;;;;;;;5018822;28;20107;-71
2022/04/13 11:08:28;;;;;;;5.68;3.42;;;;;;;;;;5021066;28;20052;-71
2022/04/13 11:10:54;;;;;;;6.38;3.15;;;;;;;;;;5020504;28;20041;-72
2022/04/13 11:13:19;;;;;;;4.13;2.83;;;;;;;;;;5020172;28;20261;-72
2022/04/13 11:15:50;;;;;;;6.22;3.10;;;;;;;;;;5017324;28;20126;-72
2022/04/13 11:18:20;;;;;;;8.68;3.00;;;;;;;;;;5021114;28;20033;-73
2022/04/13 11:21:06;;;;;;;5.97;2.50;;;;;;;;;;5019299;28;20116;-72
2022/04/13 11:23:44;;;;;;;4.50;3.10;;;;;;;;;;5020494;28;20474;-72
2022/04/13 11:26:10;;;;;;;4.00;2.97;;;;;;;;;;5019101;28;20120;-74
2022/04/13 11:28:36;;;;;;;5.78;2.53;;;;;;;;;;5021051;28;20263;-73
2022/04/13 11:31:09;;;;;;;6.95;2.90;;;;;;;;;;5017831;28;20029;-72
2022/04/13 11:33:57;;;;;;;5.10;2.88;;;;;;;;;;5020703;28;20033;-74
2022/04/13 11:36:27;;;;;;;4.82;3.13;;;;;;;;;;5017853;28;20478;-73
2022/04/13 11:38:53;;;;;;;5.38;3.00;;;;;;;;;;5019458;28;20042;-73
2022/04/13 11:41:20;;;;;;;6.07;3.20;;;;;;;;;;5018785;28;20037;-73
2022/04/13 11:43:46;;;;;;;5.88;3.25;;;;;;;;;;5019955;28;20029;-74
2022/04/13 11:46:35;;;;;;;5.40;3.67;;;;;;;;;;5016804;28;20029;-73
2022/04/13 11:49:01;;;;;;;5.15;3.50;;;;;;;;;;5018107;28;20048;-73
2022/04/13 11:51:29;;;;;;;5.70;3.33;;;;;;;;;;5019995;28;20030;-73
2022/04/13 11:54:05;;;;;;;5.40;3.15;;;;;;;;;;5020413;28;20037;-74
2022/04/13 11:56:32;;;;;;;7.65;3.20;;;;;;;;;;5023769;28;20041;-73
2022/04/13 11:58:58;;;;;;;5.50;3.70;;;;;;;;;;5021467;28;20069;-74
2022/04/13 12:01:25;;;;;;;6.93;3.13;;;;;;;;;;5021593;28;20025;-76
2022/04/13 12:03:51;;;;;;;7.97;4.25;;;;;;;;;;5024394;28;20029;-73
2022/04/13 12:06:22;;;;;;;7.10;4.05;;;;;;;;;;5022988;28;20083;-73
2022/04/13 12:08:52;;;;;;;6.90;3.22;;;;;;;;;;5021203;28;20120;-72
2022/04/13 12:11:20;;;;;;;6.85;3.88;;;;;;;;;;5023657;28;20089;-74
2022/04/13 12:13:49;;;;;;;5.50;3.20;;;;;;;;;;5022671;28;20144;-74
2022/04/13 12:16:19;;;;;;;8.52;3.53;;;;;;;;;;5021887;28;20038;-73
2022/04/13 12:18:45;;;;;;;5.22;3.50;;;;;;;;;;5024371;28;20029;-73
2022/04/13 12:21:12;;;;;;;8.82;3.33;;;;;;;;;;5021701;28;20572;-74
2022/04/13 12:23:39;;;;;;;7.75;3.30;;;;;;;;;;5023512;28;20025;-72
2022/04/13 12:26:06;;;;;;;6.22;3.22;;;;;;;;;;5020967;28;20073;-72
2022/04/13 12:28:32;;;;;;;6.75;3.28;;;;;;;;;;5023702;28;20054;-73
2022/04/13 12:31:02;;;;;;;4.50;3.10;;;;;;;;;;5021609;28;20163;-72
2022/04/13 12:33:28;;;;;;;7.43;3.25;;;;;;;;;;5023966;28;20033;-72
2022/04/13 12:35:58;;;;;;;5.45;3.20;;;;;;;;;;5023833;28;20151;-72
2022/04/13 12:38:32;;;;;;;6.22;3.25;;;;;;;;;;5024102;28;20034;-71
2022/04/13 12:41:17;;;;;;;6.03;3.15;;;;;;;;;;5022838;28;20495;-73
2022/04/13 12:43:56;;;;;;;4.78;2.85;;;;;;;;;;5023634;28;20033;-73
2022/04/13 12:46:23;;;;;;;4.75;2.58;;;;;;;;;;5022643;28;20040;-73
2022/04/13 12:49:11;;;;;;;5.43;3.38;;;;;;;;;;5023616;28;20026;-74
2022/04/13 12:51:37;;;;;;;6.10;2.55;;;;;;;;;;5022710;28;20037;-74
2022/04/13 12:54:08;;;;;;;3.45;2.58;;;;;;;;;;5021563;28;20415;-74
2022/04/13 12:56:38;;;;;;;7.03;3.05;;;;;;;;;;5023935;28;20033;-72
2022/04/13 12:59:05;;;;;;;2.70;2.50;;;;;;;;;;5023314;28;20026;-71
2022/04/13 13:01:33;;;;;;;7.57;2.83;;;;;;;;;;5022569;28;20900;-72
2022/04/13 13:04:20;;;;;;;7.70;2.40;;;;;;;;;;5022387;28;20095;-72
2022/04/13 13:07:27;;;;;;;5.07;2.72;;;;;;;;;;5020230;28;20413;-71
2022/04/13 13:09:52;;;;;;;6.55;3.30;;;;;;;;;;4993975;28;20057;-75
2022/04/13 13:12:19;;;;;;;7.20;2.65;;;;;;;;;;5021762;28;20037;-71
2022/04/13 13:14:53;;;;;;;3.78;2.40;;;;;;;;;;5022737;28;20041;-71
2022/04/13 13:17:26;;;;;;;3.47;2.38;;;;;;;;;;5022408;28;20226;-71
2022/04/13 13:19:57;;;;;;;4.45;2.03;;;;;;;;;;5022500;28;20029;-70
2022/04/13 13:22:25;;;;;;;3.13;2.40;;;;;;;;;;5021733;28;20029;-69
2022/04/13 13:24:56;;;;;;;4.22;2.20;;;;;;;;;;5021173;28;20044;-70
2022/04/13 13:27:29;;;;;;;4.03;2.35;;;;;;;;;;5017178;28;20025;-70
2022/04/13 13:29:57;;;;;;;7.00;2.38;;;;;;;;;;5020781;28;20128;-70
2022/04/13 13:32:26;;;;;;;8.82;2.92;;;;;;;;;;5019626;28;20029;-70
2022/04/13 13:35:10;;;;;;;4.57;2.55;;;;;;;;;;5021013;28;20033;-71
2022/04/13 13:37:41;;;;;;;6.35;2.60;;;;;;;;;;5021383;28;20076;-69
2022/04/13 13:40:29;;;;;;;4.10;2.35;;;;;;;;;;5022525;28;20052;-69
2022/04/13 13:42:55;;;;;;;3.78;3.38;;;;;;;;;;5021763;28;20026;-69
2022/04/13 13:45:21;;;;;;;3.92;3.45;;;;;;;;;;5021363;28;20052;-70
2022/04/13 13:47:46;;;;;;;9.70;3.95;;;;;;;;;;5020656;28;20037;-69
2022/04/13 13:50:12;;;;;;;9.52;3.70;;;;;;;;;;5022508;28;20021;-69
2022/04/13 13:52:38;;;;;;;6.80;3.38;;;;;;;;;;5021330;28;20477;-71
2022/04/13 13:55:05;;;;;;;8.73;3.72;;;;;;;;;;5020826;28;20110;-71
2022/04/13 13:57:30;;;;;;;11.02;3.63;;;;;;;;;;5021785;28;20029;-72
2022/04/13 13:59:55;;;;;;;4.25;3.35;;;;;;;;;;5020499;28;20400;-71
2022/04/13 14:02:21;;;;;;;6.57;3.47;;;;;;;;;;5021416;28;20037;-72
2022/04/13 14:04:46;;;;;;;4.53;3.30;;;;;;;;;;5021954;28;20036;-71
2022/04/13 14:07:12;;;;;;;10.15;3.65;;;;;;;;;;5021877;28;20040;-70
2022/04/13 14:09:38;;;;;;;9.60;4.03;;;;;;;;;;5020862;28;20040;-70
2022/04/13 14:12:04;;;;;;;6.60;3.72;;;;;;;;;;5020567;28;20052;-71
2022/04/13 14:14:29;;;;;;;9.45;4.47;;;;;;;;;;5022600;28;20029;-71
2022/04/13 14:16:55;;;;;;;7.63;4.32;;;;;;;;;;5021022;28;20033;-70
2022/04/13 14:19:20;;;;;;;6.57;3.70;;;;;;;;;;5021875;28;20037;-70
2022/04/13 14:21:46;;;;;;;4.30;3.80;;;;;;;;;;5018087;28;20030;-69
2022/04/13 14:24:12;;;;;;;4.68;3.70;;;;;;;;;;5022496;28;20454;-71
2022/04/13 14:26:39;;;;;;;4.88;3.95;;;;;;;;;;5021284;28;20064;-70
2022/04/13 14:29:04;;;;;;;12.73;4.25;;;;;;;;;;5020346;28;20750;-71
2022/04/13 14:31:29;;;;;;;8.88;4.38;;;;;;;;;;5016732;28;20045;-70
2022/04/13 14:33:55;;;;;;;6.45;4.38;;;;;;;;;;5020883;28;20072;-70
2022/04/13 14:36:20;;;;;;;11.50;4.20;;;;;;;;;;5019863;28;20387;-70
2022/04/13 14:38:46;;;;;;;7.03;3.75;;;;;;;;;;5021482;28;20390;-70
2022/04/13 14:41:11;;;;;;;7.15;4.75;;;;;;;;;;5017168;28;20083;-72
2022/04/13 14:43:36;;;;;;;5.18;3.90;;;;;;;;;;5021642;28;20470;-70